createdAt,value
2019-02-05T00:00:03.353Z,21.27
2019-02-05T00:02:06.881Z,19.90
2019-02-05T00:04:07.716Z,20.43
2019-02-05T00:06:08.544Z,20.77
2019-02-05T00:08:10.165Z,21.27
2019-02-05T00:10:10.997Z,20.60
2019-02-05T00:12:12.117Z,22.03
2019-02-05T00:14:12.960Z,22.13
2019-02-05T00:16:14.083Z,21.93
2019-02-05T00:18:14.920Z,21.57
2019-02-05T00:20:15.777Z,22.50
2019-02-05T00:22:16.610Z,22.20
2019-02-05T00:24:17.732Z,21.63
2019-02-05T00:26:18.892Z,21.70
2019-02-05T00:28:19.724Z,21.17
2019-02-05T00:30:20.568Z,22.10
2019-02-05T00:32:21.400Z,22.30
2019-02-05T00:34:22.233Z,21.80
2019-02-05T00:36:23.396Z,21.10
2019-02-05T00:38:24.229Z,21.87
2019-02-05T00:40:25.058Z,21.33
2019-02-05T00:42:25.910Z,22.33
2019-02-05T00:44:26.745Z,21.87
2019-02-05T00:46:27.597Z,22.03
2019-02-05T00:48:28.449Z,22.60
2019-02-05T00:50:29.280Z,22.47
2019-02-05T00:52:30.175Z,23.20
2019-02-05T00:54:31.052Z,22.90
2019-02-05T00:56:31.886Z,21.30
2019-02-05T00:58:33.034Z,21.33
2019-02-05T01:00:33.873Z,20.60
2019-02-05T01:02:35.004Z,22.00
2019-02-05T01:04:36.124Z,22.40
2019-02-05T01:06:36.968Z,22.63
2019-02-05T01:08:37.825Z,22.57
2019-02-05T01:10:38.653Z,21.47
2019-02-05T01:12:39.484Z,21.73
2019-02-05T01:14:40.428Z,22.57
2019-02-05T01:16:41.264Z,22.67
2019-02-05T01:18:42.092Z,21.77
2019-02-05T01:20:42.936Z,19.60
2019-02-05T01:22:44.165Z,21.20
2019-02-05T01:24:44.988Z,20.43
2019-02-05T01:26:45.832Z,20.97
2019-02-05T01:28:46.665Z,22.03
2019-02-05T01:30:47.823Z,21.73
2019-02-05T01:32:48.661Z,21.47
2019-02-05T01:34:49.505Z,22.43
2019-02-05T01:36:50.358Z,22.33
2019-02-05T01:38:51.604Z,23.17
2019-02-05T01:40:52.444Z,22.33
2019-02-05T01:42:53.617Z,23.10
2019-02-05T01:44:54.736Z,21.57
2019-02-05T01:46:55.565Z,22.77
2019-02-05T01:48:56.404Z,22.80
2019-02-05T01:50:57.281Z,22.97
2019-02-05T01:52:58.121Z,23.40
2019-02-05T01:54:58.952Z,23.63
2019-02-05T01:56:59.800Z,22.57
2019-02-05T01:59:00.628Z,22.10
2019-02-05T02:01:01.828Z,21.40
2019-02-05T02:03:02.959Z,22.20
2019-02-05T02:05:03.896Z,21.97
2019-02-05T02:07:05.444Z,23.37
2019-02-05T02:09:06.280Z,23.20
2019-02-05T02:11:07.112Z,22.27
2019-02-05T02:13:07.965Z,22.20
2019-02-05T02:15:09.074Z,22.10
2019-02-05T02:17:09.904Z,22.03
2019-02-05T02:19:10.852Z,23.50
2019-02-05T02:21:11.689Z,23.60
2019-02-05T02:23:12.512Z,22.50
2019-02-05T02:25:13.364Z,21.80
2019-02-05T02:27:14.489Z,22.00
2019-02-05T02:29:15.312Z,21.77
2019-02-05T02:31:16.481Z,23.27
2019-02-05T02:33:17.323Z,22.07
2019-02-05T02:35:18.148Z,21.30
2019-02-05T02:37:18.997Z,22.60
2019-02-05T02:39:20.092Z,22.23
2019-02-05T02:41:20.940Z,21.53
2019-02-05T02:43:21.781Z,22.33
2019-02-05T02:45:22.605Z,21.70
2019-02-05T02:47:23.436Z,21.77
2019-02-05T02:49:24.282Z,21.70
2019-02-05T02:51:25.120Z,21.80
2019-02-05T02:53:26.264Z,21.77
2019-02-05T02:55:27.097Z,21.10
2019-02-05T02:57:27.921Z,21.20
2019-02-05T02:59:28.764Z,20.80
2019-02-05T03:01:30.283Z,20.20
2019-02-05T03:03:31.137Z,22.20
2019-02-05T03:05:31.969Z,22.80
2019-02-05T03:07:32.805Z,21.37
2019-02-05T03:09:33.965Z,22.93
2019-02-05T03:11:34.793Z,22.10
2019-02-05T03:13:35.624Z,23.53
2019-02-05T03:15:36.460Z,22.43
2019-02-05T03:17:37.296Z,23.07
2019-02-05T03:19:38.137Z,21.97
2019-02-05T03:21:38.989Z,22.93
2019-02-05T03:23:39.826Z,22.97
2019-02-05T03:25:41.021Z,21.53
2019-02-05T03:27:41.849Z,22.37
2019-02-05T03:29:42.978Z,22.90
2019-02-05T03:31:44.230Z,23.60
2019-02-05T03:33:45.061Z,24.30
2019-02-05T03:35:45.904Z,23.13
2019-02-05T03:37:46.742Z,21.93
2019-02-05T03:39:47.884Z,21.60
2019-02-05T03:41:48.996Z,21.50
2019-02-05T03:43:49.824Z,21.93
2019-02-05T03:45:50.668Z,22.67
2019-02-05T03:47:51.506Z,22.67
2019-02-05T03:49:52.344Z,22.50
2019-02-05T03:51:53.200Z,21.10
2019-02-05T03:53:54.036Z,22.60
2019-02-05T03:55:54.853Z,23.20
2019-02-05T03:57:55.977Z,21.93
2019-02-05T03:59:56.813Z,22.27
2019-02-05T04:01:57.669Z,23.17
2019-02-05T04:03:58.772Z,23.40
2019-02-05T04:05:59.612Z,22.37
2019-02-05T04:08:00.452Z,23.17
2019-02-05T04:10:01.690Z,22.57
2019-02-05T04:12:02.957Z,21.97
2019-02-05T04:14:03.785Z,23.33
2019-02-05T04:16:04.617Z,22.63
2019-02-05T04:18:05.461Z,23.40
2019-02-05T04:20:06.316Z,24.77
2019-02-05T04:22:07.152Z,23.33
2019-02-05T04:24:07.997Z,23.63
2019-02-05T04:26:08.830Z,24.67
2019-02-05T04:28:09.664Z,25.53
2019-02-05T04:30:10.775Z,24.47
2019-02-05T04:32:11.682Z,24.47
2019-02-05T04:34:12.665Z,24.10
2019-02-05T04:36:13.998Z,23.53
2019-02-05T04:38:14.829Z,22.93
2019-02-05T04:40:15.679Z,24.47
2019-02-05T04:42:16.509Z,24.17
2019-02-05T04:44:17.769Z,24.50
2019-02-05T04:46:18.602Z,23.20
2019-02-05T04:48:19.469Z,24.30
2019-02-05T04:50:20.618Z,24.40
2019-02-05T04:52:22.060Z,24.03
2019-02-05T04:54:22.890Z,24.27
2019-02-05T04:56:24.033Z,24.97
2019-02-05T04:58:24.881Z,24.97
2019-02-05T05:00:26.416Z,23.87
2019-02-05T05:02:27.250Z,23.67
2019-02-05T05:04:28.092Z,24.20
2019-02-05T05:06:29.204Z,24.70
2019-02-05T05:08:30.332Z,23.70
2019-02-05T05:10:31.176Z,23.70
2019-02-05T05:12:32.001Z,23.97
2019-02-05T05:14:32.853Z,25.03
2019-02-05T05:16:34.313Z,24.77
2019-02-05T05:18:35.451Z,24.17
2019-02-05T05:20:36.280Z,25.43
2019-02-05T05:22:37.121Z,24.20
2019-02-05T05:24:38.352Z,25.40
2019-02-05T05:26:39.205Z,24.10
2019-02-05T05:28:40.045Z,24.57
2019-02-05T05:30:40.874Z,23.90
2019-02-05T05:32:42.220Z,25.67
2019-02-05T05:34:43.336Z,24.93
2019-02-05T05:36:44.182Z,26.03
2019-02-05T05:38:45.017Z,26.13
2019-02-05T05:40:45.876Z,26.97
2019-02-05T05:42:46.714Z,26.13
2019-02-05T05:44:47.565Z,26.10
2019-02-05T05:46:48.508Z,25.60
2019-02-05T05:48:49.356Z,25.90
2019-02-05T05:50:50.214Z,28.90
2019-02-05T05:52:51.125Z,25.63
2019-02-05T05:54:51.968Z,25.40
2019-02-05T05:56:52.812Z,25.57
2019-02-05T05:58:53.646Z,25.83
2019-02-05T06:00:54.481Z,30.07
2019-02-05T06:02:55.330Z,31.33
2019-02-05T06:04:56.153Z,33.83
2019-02-05T06:06:56.986Z,35.57
2019-02-05T06:08:57.830Z,28.03
2019-02-05T06:10:58.665Z,26.63
2019-02-05T06:12:59.496Z,25.80
2019-02-05T06:15:00.457Z,25.87
2019-02-05T06:17:01.392Z,27.20
2019-02-05T06:19:02.576Z,32.13
2019-02-05T06:21:03.420Z,26.57
2019-02-05T06:23:04.256Z,31.83
2019-02-05T06:25:05.107Z,28.07
2019-02-05T06:27:06.343Z,27.30
2019-02-05T06:29:07.164Z,28.20
2019-02-05T06:31:08.324Z,27.20
2019-02-05T06:33:09.157Z,27.70
2019-02-05T06:35:10.269Z,27.10
2019-02-05T06:37:11.428Z,26.73
2019-02-05T06:39:12.252Z,28.67
2019-02-05T06:41:13.085Z,30.10
2019-02-05T06:43:14.136Z,29.53
2019-02-05T06:45:14.974Z,26.67
2019-02-05T06:47:15.966Z,26.37
2019-02-05T06:49:16.900Z,25.43
2019-02-05T06:51:18.094Z,27.83
2019-02-05T06:53:18.944Z,34.00
2019-02-05T06:55:19.852Z,41.50
2019-02-05T06:57:20.704Z,39.73
2019-02-05T06:59:21.857Z,38.70
2019-02-05T07:01:22.768Z,29.20
2019-02-05T07:03:23.600Z,28.33
2019-02-05T07:05:24.461Z,35.43
2019-02-05T07:07:25.696Z,28.90
2019-02-05T07:09:26.795Z,27.00
2019-02-05T07:11:27.644Z,27.50
2019-02-05T07:13:28.497Z,27.40
2019-02-05T07:15:30.029Z,25.90
2019-02-05T07:17:30.939Z,26.90
2019-02-05T07:19:31.892Z,28.67
2019-02-05T07:21:32.756Z,38.30
2019-02-05T07:23:34.080Z,37.90
2019-02-05T07:25:34.944Z,38.80
2019-02-05T07:27:35.789Z,43.87
2019-02-05T07:29:36.835Z,34.73
2019-02-05T07:31:38.028Z,30.20
2019-02-05T07:33:38.980Z,28.23
2019-02-05T07:35:39.824Z,27.30
2019-02-05T07:37:41.034Z,27.90
2019-02-05T07:39:42.148Z,28.27
2019-02-05T07:41:43.005Z,26.23
2019-02-05T07:43:43.932Z,27.60
2019-02-05T07:45:45.081Z,27.10
2019-02-05T07:47:45.909Z,27.03
2019-02-05T07:49:46.752Z,27.70
2019-02-05T07:51:47.604Z,27.17
2019-02-05T07:53:48.973Z,27.50
2019-02-05T07:55:50.307Z,25.90
2019-02-05T07:57:51.161Z,26.10
2019-02-05T07:59:52.016Z,26.30
2019-02-05T08:01:53.260Z,26.07
2019-02-05T08:03:54.104Z,25.63
2019-02-05T08:05:54.948Z,24.43
2019-02-05T08:07:55.781Z,25.00
2019-02-05T08:09:56.997Z,24.93
2019-02-05T08:11:57.849Z,25.07
2019-02-05T08:13:58.672Z,23.63
2019-02-05T08:15:59.544Z,25.57
2019-02-05T08:18:00.746Z,29.00
2019-02-05T08:20:01.672Z,26.57
2019-02-05T08:22:02.849Z,27.27
2019-02-05T08:24:04.084Z,24.03
2019-02-05T08:26:04.911Z,23.43
2019-02-05T08:28:05.753Z,23.63
2019-02-05T08:30:06.597Z,24.57
2019-02-05T08:32:08.125Z,23.20
2019-02-05T08:34:08.947Z,24.60
2019-02-05T08:36:10.101Z,24.33
2019-02-05T08:38:11.225Z,24.13
2019-02-05T08:40:12.065Z,24.03
2019-02-05T08:42:12.953Z,24.43
2019-02-05T08:44:13.856Z,23.23
2019-02-05T08:46:14.788Z,23.90
2019-02-05T08:48:15.636Z,24.97
2019-02-05T08:50:16.733Z,24.20
2019-02-05T08:52:17.917Z,24.60
2019-02-05T08:54:18.749Z,23.13
2019-02-05T08:56:19.573Z,25.23
2019-02-05T08:58:30.590Z,24.30
2019-02-05T09:00:23.156Z,23.20
2019-02-05T09:02:24.111Z,23.47
2019-02-05T09:04:24.941Z,22.13
2019-02-05T09:06:25.769Z,21.90
2019-02-05T09:08:26.625Z,19.40
2019-02-05T09:10:27.753Z,20.30
2019-02-05T09:12:28.873Z,20.47
2019-02-05T09:14:30.037Z,21.50
2019-02-05T09:16:30.884Z,23.33
2019-02-05T09:18:32.021Z,23.67
2019-02-05T09:20:33.121Z,23.43
2019-02-05T09:22:34.071Z,23.10
2019-02-05T09:24:34.933Z,23.07
2019-02-05T09:26:36.352Z,23.60
2019-02-05T09:28:37.180Z,23.03
2019-02-05T09:30:38.012Z,24.37
2019-02-05T09:32:38.848Z,24.67
2019-02-05T09:34:40.898Z,24.63
2019-02-05T09:36:41.840Z,24.50
2019-02-05T09:38:42.998Z,24.27
2019-02-05T09:40:44.155Z,24.73
2019-02-05T09:42:45.084Z,24.43
2019-02-05T09:44:45.923Z,25.53
2019-02-05T09:46:47.044Z,23.43
2019-02-05T09:48:47.868Z,25.53
2019-02-05T09:50:48.717Z,24.57
2019-02-05T09:52:49.558Z,24.40
2019-02-05T09:54:50.424Z,23.53
2019-02-05T09:56:51.268Z,23.80
2019-02-05T09:58:52.116Z,21.83
2019-02-05T10:00:52.979Z,23.40
2019-02-05T10:02:53.821Z,21.83
2019-02-05T10:04:54.956Z,20.73
2019-02-05T10:06:56.105Z,20.13
2019-02-05T10:08:56.941Z,20.30
2019-02-05T10:10:57.772Z,20.07
2019-02-05T10:12:58.731Z,21.53
2019-02-05T10:14:59.744Z,21.10
2019-02-05T10:17:00.574Z,21.50
2019-02-05T10:19:01.437Z,20.03
2019-02-05T10:21:02.672Z,20.60
2019-02-05T10:23:03.609Z,19.17
2019-02-05T10:25:04.461Z,19.00
2019-02-05T10:27:05.316Z,19.73
2019-02-05T10:29:06.928Z,19.93
2019-02-05T10:31:07.765Z,22.10
2019-02-05T10:33:08.611Z,21.77
2019-02-05T10:35:09.448Z,18.47
2019-02-05T10:37:11.143Z,20.00
2019-02-05T10:39:12.284Z,20.70
2019-02-05T10:41:13.124Z,18.83
2019-02-05T10:43:14.058Z,20.03
2019-02-05T10:45:15.857Z,19.40
2019-02-05T10:47:16.813Z,19.43
2019-02-05T10:49:17.972Z,18.57
2019-02-05T10:51:18.804Z,19.77
2019-02-05T10:53:19.964Z,20.07
2019-02-05T10:55:21.081Z,19.63
2019-02-05T10:57:21.932Z,19.93
2019-02-05T10:59:22.770Z,18.40
2019-02-05T11:01:23.604Z,19.97
2019-02-05T11:03:24.449Z,19.63
2019-02-05T11:05:25.656Z,19.43
2019-02-05T11:07:26.522Z,17.97
2019-02-05T11:09:27.349Z,18.90
2019-02-05T11:11:28.309Z,18.20
2019-02-05T11:13:29.241Z,18.73
2019-02-05T11:15:30.076Z,20.00
2019-02-05T11:17:31.025Z,18.37
2019-02-05T11:19:31.864Z,18.97
2019-02-05T11:21:32.712Z,17.70
2019-02-05T11:23:33.556Z,18.83
2019-02-05T11:25:34.385Z,19.23
2019-02-05T11:27:35.241Z,19.73
2019-02-05T11:29:36.076Z,28.03
2019-02-05T11:31:37.232Z,18.80
2019-02-05T11:33:38.064Z,18.23
2019-02-05T11:35:38.903Z,17.40
2019-02-05T11:37:39.857Z,16.17
2019-02-05T11:39:41.128Z,16.57
2019-02-05T11:41:41.988Z,15.93
2019-02-05T11:43:42.853Z,15.87
2019-02-05T11:45:43.956Z,17.53
2019-02-05T11:47:45.205Z,18.50
2019-02-05T11:49:46.356Z,15.23
2019-02-05T11:51:47.489Z,17.83
2019-02-05T11:53:48.324Z,15.30
2019-02-05T11:55:49.188Z,14.30
2019-02-05T11:57:50.122Z,17.40
2019-02-05T11:59:50.949Z,14.87
2019-02-05T12:01:51.805Z,14.40
2019-02-05T12:03:52.637Z,14.93
2019-02-05T12:05:53.496Z,14.67
2019-02-05T12:07:54.329Z,14.90
2019-02-05T12:09:55.178Z,15.13
2019-02-05T12:11:56.021Z,14.67
2019-02-05T12:13:56.865Z,14.30
2019-02-05T12:15:57.726Z,14.70
2019-02-05T12:17:58.860Z,15.00
2019-02-05T12:19:59.712Z,14.93
2019-02-05T12:22:00.548Z,14.40
2019-02-05T12:24:01.393Z,14.47
2019-02-05T12:26:02.653Z,14.40
2019-02-05T12:28:03.816Z,15.07
2019-02-05T12:30:04.694Z,13.93
2019-02-05T12:32:05.632Z,14.70
2019-02-05T12:34:06.965Z,15.30
2019-02-05T12:36:08.072Z,15.53
2019-02-05T12:38:08.920Z,15.27
2019-02-05T12:40:10.256Z,16.27
2019-02-05T12:42:11.396Z,16.23
2019-02-05T12:44:12.252Z,19.03
2019-02-05T12:46:13.092Z,16.17
2019-02-05T12:48:13.949Z,15.90
2019-02-05T12:50:15.293Z,14.43
2019-02-05T12:52:16.121Z,14.60
2019-02-05T12:54:16.974Z,14.70
2019-02-05T12:56:17.822Z,15.77
2019-02-05T12:58:18.665Z,14.50
2019-02-05T13:00:19.594Z,14.80
2019-02-05T13:02:20.540Z,15.13
2019-02-05T13:04:21.385Z,14.63
2019-02-05T13:06:22.616Z,13.67
2019-02-05T13:08:23.475Z,13.57
2019-02-05T13:10:24.304Z,14.27
2019-02-05T13:12:25.152Z,14.47
2019-02-05T13:14:26.505Z,14.80
2019-02-05T13:16:27.340Z,14.27
2019-02-05T13:18:28.189Z,14.53
2019-02-05T13:20:29.033Z,14.87
2019-02-05T13:22:30.368Z,14.03
2019-02-05T13:24:31.221Z,13.77
2019-02-05T13:26:32.062Z,14.43
2019-02-05T13:28:32.888Z,14.13
2019-02-05T13:30:33.732Z,15.03
2019-02-05T13:32:34.585Z,14.57
2019-02-05T13:34:35.709Z,14.80
2019-02-05T13:36:36.564Z,14.20
2019-02-05T13:38:37.406Z,14.17
2019-02-05T13:40:38.240Z,14.30
2019-02-05T13:42:39.092Z,14.23
2019-02-05T13:44:40.002Z,13.80
2019-02-05T13:46:40.848Z,13.77
2019-02-05T13:48:41.693Z,14.17
2019-02-05T13:50:42.798Z,14.07
2019-02-05T13:52:43.637Z,13.77
2019-02-05T13:54:44.467Z,14.40
2019-02-05T13:56:45.316Z,14.23
2019-02-05T13:58:46.418Z,13.80
2019-02-05T14:00:47.588Z,13.60
2019-02-05T14:02:48.701Z,13.20
2019-02-05T14:04:49.541Z,13.20
2019-02-05T14:06:50.772Z,13.20
2019-02-05T14:08:52.022Z,13.83
2019-02-05T14:10:52.876Z,12.53
2019-02-05T14:12:53.731Z,13.33
2019-02-05T14:14:54.556Z,14.00
2019-02-05T14:16:55.712Z,13.20
2019-02-05T14:18:56.558Z,13.00
2019-02-05T14:20:57.761Z,13.30
2019-02-05T14:22:58.601Z,13.87
2019-02-05T14:24:59.428Z,13.53
2019-02-05T14:27:00.285Z,13.03
2019-02-05T14:29:01.112Z,12.90
2019-02-05T14:31:02.229Z,12.50
2019-02-05T14:33:03.246Z,12.27
2019-02-05T14:35:04.165Z,13.27
2019-02-05T14:37:05.061Z,13.13
2019-02-05T14:39:05.898Z,14.23
2019-02-05T14:41:06.728Z,12.93
2019-02-05T14:43:07.584Z,13.47
2019-02-05T14:45:08.425Z,13.13
2019-02-05T14:47:09.687Z,13.23
2019-02-05T14:49:10.569Z,13.50
2019-02-05T14:51:11.877Z,13.43
2019-02-05T14:53:12.729Z,13.40
2019-02-05T14:55:13.564Z,13.53
2019-02-05T14:57:14.524Z,13.70
2019-02-05T14:59:15.433Z,14.23
2019-02-05T15:01:16.669Z,13.63
2019-02-05T15:03:17.552Z,13.33
2019-02-05T15:05:18.456Z,13.70
2019-02-05T15:07:19.385Z,13.27
2019-02-05T15:09:20.624Z,13.53
2019-02-05T15:11:21.584Z,13.43
2019-02-05T15:13:22.414Z,12.47
2019-02-05T15:15:23.244Z,12.90
2019-02-05T15:17:24.500Z,12.40
2019-02-05T15:19:25.352Z,12.67
2019-02-05T15:21:26.513Z,12.70
2019-02-05T15:23:27.358Z,12.80
2019-02-05T15:25:28.196Z,12.97
2019-02-05T15:27:29.061Z,12.23
2019-02-05T15:29:29.910Z,11.70
2019-02-05T15:31:30.748Z,11.83
2019-02-05T15:33:51.161Z,11.27
2019-02-05T15:35:54.884Z,11.00
2019-02-05T15:37:56.011Z,11.33
2019-02-05T15:39:57.593Z,11.30
2019-02-05T15:41:58.528Z,10.93
2019-02-05T15:44:00.697Z,10.93
2019-02-05T15:46:02.120Z,11.30
2019-02-05T15:48:03.263Z,10.87
2019-02-05T15:50:05.994Z,10.70
2019-02-05T15:52:07.580Z,11.37
2019-02-05T15:54:08.417Z,12.70
2019-02-05T15:56:09.292Z,12.27
2019-02-05T15:58:10.214Z,13.03
2019-02-05T16:00:11.652Z,14.00
2019-02-05T16:02:12.500Z,13.70
2019-02-05T16:04:13.609Z,13.13
2019-02-05T16:06:14.766Z,12.73
2019-02-05T16:08:15.614Z,12.97
2019-02-05T16:10:16.549Z,13.43
2019-02-05T16:12:17.673Z,14.30
2019-02-05T16:14:18.513Z,13.23
2019-02-05T16:16:19.733Z,13.33
2019-02-05T16:18:20.580Z,14.50
2019-02-05T16:20:21.722Z,14.13
2019-02-05T16:22:22.569Z,13.80
2019-02-05T16:24:23.405Z,15.40
2019-02-05T16:26:24.272Z,15.60
2019-02-05T16:28:25.104Z,12.43
2019-02-05T16:30:26.273Z,12.50
2019-02-05T16:32:27.120Z,13.80
2019-02-05T16:34:27.976Z,13.77
2019-02-05T16:36:28.808Z,13.37
2019-02-05T16:38:29.660Z,13.80
2019-02-05T16:40:30.517Z,13.50
2019-02-05T16:42:31.357Z,13.40
2019-02-05T16:44:32.538Z,15.23
2019-02-05T16:46:33.369Z,14.50
2019-02-05T16:48:34.224Z,15.03
2019-02-05T16:50:35.061Z,15.87
2019-02-05T16:52:35.885Z,15.33
2019-02-05T16:54:36.746Z,14.87
2019-02-05T16:56:37.829Z,14.00
2019-02-05T16:58:38.677Z,13.77
2019-02-05T17:00:39.516Z,14.03
2019-02-05T17:02:40.733Z,13.23
2019-02-05T17:04:41.580Z,13.10
2019-02-05T17:06:42.420Z,12.40
2019-02-05T17:08:43.273Z,12.83
2019-02-05T17:10:44.108Z,13.40
2019-02-05T17:12:44.973Z,13.20
2019-02-05T17:14:46.400Z,13.17
2019-02-05T17:16:47.232Z,13.00
2019-02-05T17:18:48.092Z,13.90
2019-02-05T17:20:48.929Z,13.83
2019-02-05T17:22:49.760Z,12.63
2019-02-05T17:24:50.609Z,13.83
2019-02-05T17:26:51.460Z,13.43
2019-02-05T17:28:52.294Z,13.70
2019-02-05T17:30:53.125Z,13.63
2019-02-05T17:32:53.976Z,14.13
2019-02-05T17:34:54.838Z,13.83
2019-02-05T17:36:55.676Z,15.20
2019-02-05T17:38:56.513Z,14.07
2019-02-05T17:40:57.381Z,14.87
2019-02-05T17:42:58.225Z,15.47
2019-02-05T17:44:59.122Z,15.93
2019-02-05T17:47:00.036Z,16.43
2019-02-05T17:49:00.869Z,17.47
2019-02-05T17:51:01.981Z,18.10
2019-02-05T17:53:02.810Z,18.67
2019-02-05T17:55:03.935Z,17.30
2019-02-05T17:57:05.181Z,18.63
2019-02-05T17:59:06.032Z,18.50
2019-02-05T18:01:11.548Z,18.27
2019-02-05T18:03:12.392Z,18.80
2019-02-05T18:05:13.832Z,20.10
2019-02-05T18:07:14.688Z,18.60
2019-02-05T18:09:15.524Z,18.83
2019-02-05T18:11:16.359Z,18.67
2019-02-05T18:13:17.224Z,17.27
2019-02-05T18:15:18.406Z,17.47
2019-02-05T18:17:19.257Z,15.77
2019-02-05T18:19:20.392Z,16.40
2019-02-05T18:21:21.224Z,16.67
2019-02-05T18:23:22.057Z,16.70
2019-02-05T18:25:22.915Z,18.00
2019-02-05T18:27:23.736Z,16.37
2019-02-05T18:29:24.600Z,17.43
2019-02-05T18:31:25.431Z,18.60
2019-02-05T18:33:26.256Z,17.33
2019-02-05T18:35:27.106Z,17.50
2019-02-05T18:37:27.940Z,19.37
2019-02-05T18:39:28.789Z,19.27
2019-02-05T18:41:29.973Z,20.80
2019-02-05T18:43:30.829Z,22.10
2019-02-05T18:45:31.926Z,23.43
2019-02-05T18:47:32.768Z,23.67
2019-02-05T18:49:33.917Z,22.97
2019-02-05T18:51:35.068Z,25.50
2019-02-05T18:53:35.900Z,23.23
2019-02-05T18:55:36.773Z,22.40
2019-02-05T18:57:37.607Z,21.67
2019-02-05T18:59:38.448Z,22.40
2019-02-05T19:01:39.306Z,22.13
2019-02-05T19:03:40.140Z,21.57
2019-02-05T19:05:40.980Z,20.70
2019-02-05T19:07:41.881Z,20.50
2019-02-05T19:09:42.713Z,19.90
2019-02-05T19:11:43.549Z,19.63
2019-02-05T19:13:44.400Z,19.80
2019-02-05T19:15:45.229Z,21.03
2019-02-05T19:17:46.060Z,22.57
2019-02-05T19:19:46.910Z,21.10
2019-02-05T19:21:47.777Z,20.90
2019-02-05T19:23:50.536Z,21.90
2019-02-05T19:26:09.960Z,21.40
2019-02-05T19:28:16.301Z,22.07
2019-02-05T19:30:18.925Z,22.83
2019-02-05T19:32:23.940Z,22.67
2019-02-05T19:34:25.115Z,23.17
2019-02-05T19:36:25.928Z,23.43
2019-02-05T19:38:27.105Z,24.70
2019-02-05T19:40:27.952Z,26.60
2019-02-05T19:42:28.782Z,26.30
2019-02-05T19:44:29.898Z,24.53
2019-02-05T19:46:49.063Z,24.43
2019-02-05T19:48:53.970Z,22.43
2019-02-05T19:50:54.932Z,22.13
2019-02-05T19:52:56.040Z,22.33
2019-02-05T19:54:56.950Z,22.50
2019-02-05T19:56:57.795Z,23.63
2019-02-05T19:58:59.108Z,25.70
2019-02-05T20:00:59.952Z,24.27
2019-02-05T20:03:00.793Z,27.33
2019-02-05T20:05:02.150Z,26.50
2019-02-05T20:07:02.995Z,26.93
2019-02-05T20:09:03.884Z,27.67
2019-02-05T20:11:04.745Z,28.50
2019-02-05T20:13:06.332Z,28.63
2019-02-05T20:15:07.181Z,27.57
2019-02-05T20:17:08.011Z,30.07
2019-02-05T20:19:08.845Z,28.67
2019-02-05T20:21:09.668Z,28.30
2019-02-05T20:23:10.525Z,27.77
2019-02-05T20:25:11.369Z,28.20
2019-02-05T20:27:12.942Z,29.37
2019-02-05T20:29:14.117Z,27.83
2019-02-05T20:31:14.953Z,30.90
2019-02-05T20:33:16.048Z,29.00
2019-02-05T20:35:16.882Z,31.53
2019-02-05T20:37:17.717Z,32.30
2019-02-05T20:39:18.866Z,30.97
2019-02-05T20:41:19.978Z,27.43
2019-02-05T20:43:20.822Z,28.17
2019-02-05T20:45:21.648Z,28.27
2019-02-05T20:47:22.476Z,28.57
2019-02-05T20:49:23.425Z,26.93
2019-02-05T20:51:24.724Z,25.20
2019-02-05T20:53:25.580Z,24.57
2019-02-05T20:55:26.454Z,24.77
2019-02-05T20:57:27.397Z,24.33
2019-02-05T20:59:30.429Z,23.20
2019-02-05T21:01:31.197Z,24.43
2019-02-05T21:03:32.389Z,22.73
2019-02-05T21:05:33.894Z,23.13
2019-02-05T21:07:34.750Z,23.23
2019-02-05T21:09:35.596Z,25.33
2019-02-05T21:11:36.469Z,27.10
2019-02-05T21:13:37.337Z,27.13
2019-02-05T21:15:38.637Z,25.73
2019-02-05T21:17:40.049Z,24.43
2019-02-05T21:19:40.909Z,25.73
2019-02-05T21:21:43.072Z,25.30
2019-02-05T21:23:44.225Z,26.70
2019-02-05T21:25:45.052Z,25.17
2019-02-05T21:27:45.961Z,26.40
2019-02-05T21:29:46.805Z,27.57
2019-02-05T21:31:47.937Z,30.10
2019-02-05T21:33:48.794Z,31.03
2019-02-05T21:35:49.690Z,31.37
2019-02-05T21:37:50.526Z,32.27
2019-02-05T21:40:02.067Z,32.27
2019-02-05T21:41:54.469Z,32.43
2019-02-05T21:43:55.324Z,30.33
2019-02-05T21:45:56.206Z,32.97
2019-02-05T21:47:57.556Z,33.57
2019-02-05T21:49:58.401Z,34.37
2019-02-05T21:51:59.552Z,32.70
2019-02-05T21:54:00.681Z,34.23
2019-02-05T21:56:01.905Z,33.30
2019-02-05T21:58:02.752Z,33.43
2019-02-05T22:00:03.620Z,33.63
2019-02-05T22:02:04.450Z,35.23
2019-02-05T22:04:06.104Z,34.53
2019-02-05T22:06:07.016Z,34.20
2019-02-05T22:08:08.758Z,31.07
2019-02-05T22:10:10.031Z,32.90
2019-02-05T22:12:11.144Z,31.90
2019-02-05T22:14:12.286Z,33.43
2019-02-05T22:16:13.121Z,32.80
2019-02-05T22:18:13.985Z,31.57
2019-02-05T22:20:14.821Z,30.43
2019-02-05T22:22:15.668Z,31.53
2019-02-05T22:24:16.864Z,31.50
2019-02-05T22:26:17.696Z,33.60
2019-02-05T22:28:20.689Z,34.60
2019-02-05T22:30:21.268Z,35.13
2019-02-05T22:32:22.096Z,34.30
2019-02-05T22:34:22.946Z,35.37
2019-02-05T22:36:23.805Z,33.67
2019-02-05T22:38:24.958Z,33.83
2019-02-05T22:40:25.795Z,34.83
2019-02-05T22:42:26.870Z,33.10
2019-02-05T22:44:28.380Z,33.53
2019-02-05T22:46:29.207Z,33.67
2019-02-05T22:48:30.032Z,31.70
2019-02-05T22:50:30.897Z,32.60
2019-02-05T22:52:31.829Z,32.77
2019-02-05T22:54:33.075Z,32.97
2019-02-05T22:56:34.407Z,34.30
2019-02-05T22:58:35.619Z,32.53
2019-02-05T23:00:46.464Z,34.23
2019-02-05T23:02:47.299Z,33.67
2019-02-05T23:04:50.717Z,36.67
2019-02-05T23:06:50.873Z,34.83
2019-02-05T23:08:51.724Z,36.00
2019-02-05T23:11:03.114Z,34.60
2019-02-05T23:12:55.913Z,34.63
2019-02-05T23:14:56.740Z,31.57
2019-02-05T23:16:57.588Z,30.70
2019-02-05T23:18:58.417Z,31.90
2019-02-05T23:20:59.261Z,31.53
2019-02-05T23:23:00.369Z,30.83
2019-02-05T23:25:01.218Z,31.17
2019-02-05T23:27:02.062Z,32.00
2019-02-05T23:29:02.904Z,31.07
2019-02-05T23:31:03.754Z,32.33
2019-02-05T23:33:04.576Z,33.80
2019-02-05T23:35:05.697Z,32.40
2019-02-05T23:37:06.540Z,32.30
2019-02-05T23:39:07.380Z,32.13
2019-02-05T23:41:08.211Z,32.17
2019-02-05T23:43:09.053Z,34.60
2019-02-05T23:45:09.905Z,33.80
2019-02-05T23:47:11.108Z,32.37
2019-02-05T23:49:11.937Z,33.47
2019-02-05T23:51:12.769Z,34.40
2019-02-05T23:53:13.632Z,34.53
2019-02-05T23:55:14.468Z,32.87
2019-02-05T23:57:15.308Z,33.33
2019-02-05T23:59:16.157Z,32.60
